Itajuipe, Brazil
Current Conditions -  °F | °C
As of 2:00 AM on Thursday 18 Dec 2014 (Local Time) from SBIL Reporting Station
Moderate Rain Moderate Rain  
Wind Chill: 73°   Ceiling: 700
Heat Index: 73°   Visibility: 1.2mi
Dew Point: 72°   Wind: 8mph
Humidity: 94%   Direction: 40°NE
Pressure: NA   Gusts: NA
Location:  14.68°S, 39.37°W
Report Text: SBIL 180500Z 04007KT 2000 RA BR BKN007 BKN015 OVC100 23/22 Q1011
Loading
Personal Weather Stations






























Interactive Weather Map New forecast layout! Learn more

10-Day Weather Forecast

Advertisements
Track Severe Weather on mobile